Latest Weather Observations for Munglinup West

IDW60801

Issued at 9:02 pm WST Wednesday 1 April 2015 (issued every 30 minutes, with the page automatically refreshed every 10 minutes)

About weather observations | Map of weather stations | Latest weather observations for WA | Other Formats
Station Details ID: 012044 Name: MUNGLINUP WEST Lat: -33.55 Lon: 120.70 Height: 220.0 m
Data from the previous 72 hours. | See also: Recent months at Munglinup West
Date/Time
WST
Temp
°C
App
Temp
°C
Dew
Point
Rel
Hum
%
Delta-T
°C
Wind Press
QNH
hPa
Press
MSL
hPa
Rain
since 9 am
mm
Dir
 
Spd
km/h
Gust
km/h
Spd
kts
Gust
kts
01/09:00pm 13.0 10.7 11.7 92 0.7 ESE 15 19 8 10 1027.0 1026.5 0.0
01/08:30pm 13.7 11.1 11.9 89 1.0 ESE 17 22 9 12 1027.1 1026.6 0.0
01/08:00pm 14.0 11.0 12.0 88 1.1 ESE 19 26 10 14 1027.0 1026.5 0.0
01/07:30pm 14.0 11.0 12.0 88 1.1 SE 19 28 10 15 1026.9 1026.4 0.0
01/07:00pm 14.8 12.0 11.4 80 1.8 ESE 17 24 9 13 1026.5 1026.0 0.0
01/06:30pm 14.9 12.0 11.1 78 2.0 ESE 17 24 9 13 1026.3 1025.8 0.0
01/06:00pm 15.0 11.2 11.0 77 2.1 SE 22 26 12 14 1026.1 1025.6 0.0
01/05:30pm 15.2 11.1 11.4 78 2.1 SE 24 35 13 19 1026.0 1025.5 0.0
01/05:00pm 16.2 12.8 11.4 73 2.6 ESE 20 30 11 16 1025.7 1025.2 0.0
01/04:30pm 17.2 12.3 9.9 62 3.9 SE 26 35 14 19 1025.5 1024.9 0.0
01/04:00pm 17.8 14.0 9.9 60 4.2 SSE 20 28 11 15 1025.4 1024.8 0.0
01/03:30pm 18.4 14.1 9.2 55 4.9 SE 22 32 12 17 1025.4 1024.8 0.0
01/03:00pm 18.4 14.1 9.2 55 4.8 SE 22 30 12 16 1025.3 1024.7 0.0
01/02:30pm 18.4 14.5 9.5 56 4.7 SSE 20 28 11 15 1025.3 1024.7 0.0
01/02:00pm 19.8 15.8 10.5 55 5.1 SE 22 33 12 18 1025.4 1024.8 0.0
01/01:30pm 18.3 13.0 11.1 63 3.9 SE 30 35 16 19 1025.5 1024.9 0.0
01/01:00pm 18.8 15.2 10.4 58 4.5 SSE 20 33 11 18 1025.7 1025.2 0.0
01/12:30pm 18.8 14.7 11.6 63 4.0 SSE 24 35 13 19 1025.9 1025.4 0.0
01/12:00pm 17.6 13.7 10.7 64 3.7 SSE 22 33 12 18 1026.0 1025.5 0.0
01/11:30am 18.5 15.6 9.6 56 4.7 SSE 15 26 8 14 1026.1 1025.6 0.0
01/11:00am 18.5 15.1 9.0 54 5.0 SSE 17 26 9 14 1026.3 1025.8 0.0
01/10:30am 18.1 14.4 9.5 57 4.6 SE 19 24 10 13 1026.3 1025.8 0.0
01/10:00am 17.6 14.3 9.5 59 4.3 SSE 17 28 9 15 1026.4 1025.9 0.0
01/09:30am 17.6 14.9 10.2 62 4.0 SSE 15 22 8 12 1026.4 1025.9 0.0
01/09:00am 16.3 13.4 9.7 65 3.5 SSE 15 24 8 13 1026.3 1025.8 4.2
01/08:30am 15.9 14.2 11.3 74 2.5 S 11 17 6 9 1026.1 1025.6 4.2
01/08:00am 14.9 14.0 11.5 80 1.8 S 7 9 4 5 1025.9 1025.4 4.2
01/07:30am 14.4 13.5 11.2 81 1.7 S 7 11 4 6 1025.5 1024.8 4.2
01/07:00am 14.3 12.7 11.5 83 1.5 S 11 15 6 8 1025.1 1024.3 4.2
01/06:30am 14.1 12.4 12.5 90 0.9 S 13 17 7 9 1024.8 1024.0 4.2
01/06:00am 14.1 13.1 13.3 95 0.4 SSE 11 17 6 9 1024.5 1023.7 4.2
01/05:30am 13.8 12.0 13.2 96 0.3 SSE 15 22 8 12 1024.0 1023.3 4.2
01/05:00am 13.9 13.0 13.6 98 0.2 S 11 20 6 11 1023.6 1022.9 4.2
01/04:30am 14.4 13.3 14.4 100 0.0 SSW 13 20 7 11 1023.3 1022.6 4.2
01/04:00am 14.5 13.9 14.5 100 0.0 S 11 17 6 9 1022.9 1022.2 4.2
01/03:30am 14.4 13.3 14.4 100 0.0 S 13 19 7 10 1022.6 1021.9 4.2
01/03:00am 14.7 13.4 14.7 100 0.0 S 15 20 8 11 1022.2 1021.5 4.2
01/02:30am 14.9 13.6 14.9 100 0.0 SSW 15 24 8 13 1021.9 1021.2 4.2
01/02:00am 14.8 13.5 14.8 100 0.0 S 15 22 8 12 1021.7 1021.0 4.0
01/01:30am 14.8 12.7 14.8 100 0.0 SSW 19 24 10 13 1021.6 1020.9 4.0
01/01:00am 15.2 13.1 15.2 100 0.0 SSW 20 33 11 18 1021.5 1020.8 4.0
01/12:30am 15.3 14.2 15.3 100 0.0 SSW 15 19 8 10 1021.4 1020.6 4.0
01/12:00am 15.2 12.7 15.2 100 0.0 SSW 22 30 12 16 1021.3 1020.5 4.0
 
Date/Time
WST
Temp
°C
App
Temp
°C
Dew
Point
Rel
Hum
%
Delta-T
°C
Wind Press
QNH
hPa
Press
MSL
hPa
Rain
since 9 am
mm
Dir
 
Spd
km/h
Gust
km/h
Spd
kts
Gust
kts
31/11:30pm 15.9 15.0 15.9 100 0.0 SSW 15 20 8 11 1021.1 1020.3 4.0
31/11:00pm 16.2 14.5 16.2 100 0.0 SSW 20 28 11 15 1021.1 1020.3 4.0
31/10:30pm 16.3 14.2 16.3 100 0.0 SSW 22 35 12 19 1020.9 1020.1 4.0
31/10:00pm 16.4 16.1 16.4 100 0.0 SW 13 17 7 9 1020.8 1020.0 4.0
31/09:30pm 16.8 18.0 16.8 100 0.0 SW 6 9 3 5 1020.6 1019.8 2.6
31/09:00pm 16.3 17.2 16.1 99 0.1 WSW 6 6 3 3 1020.3 1019.5 2.6
31/08:30pm 16.3 17.2 16.1 99 0.1 SSW 6 7 3 4 1020.0 1019.2 2.6
31/08:00pm 16.6 17.4 16.3 98 0.2 SSW 7 9 4 5 1019.8 1019.0 2.6
31/07:30pm 16.8 17.6 16.3 97 0.3 S 7 7 4 4 1019.1 1018.4 2.6
31/07:00pm 17.0 17.9 16.2 95 0.5 S 6 9 3 5 1018.6 1017.9 2.6
31/06:30pm 17.3 18.2 16.0 92 0.8 S 6 9 3 5 1017.9 1017.2 2.6
31/06:00pm 17.9 18.2 16.1 89 1.1 S 9 11 5 6 1017.5 1016.8 2.6
31/05:30pm 18.5 19.4 16.5 88 1.2 S 7 13 4 7 1017.1 1016.3 2.6
31/05:00pm 19.1 18.8 16.5 85 1.6 S 13 19 7 10 1017.0 1016.2 2.6
31/04:30pm 19.4 19.2 16.6 84 1.7 S 13 17 7 9 1016.7 1015.9 2.6
31/04:00pm 19.5 19.4 16.9 85 1.6 S 13 20 7 11 1016.3 1015.5 2.6
31/03:30pm 20.2 19.7 17.0 82 2.0 S 15 20 8 11 1016.2 1015.4 2.6
31/03:00pm 19.6 19.5 17.0 85 1.6 S 13 20 7 11 1016.0 1015.2 2.6
31/02:30pm 19.3 18.6 17.4 89 1.2 SSW 17 24 9 13 1016.0 1015.2 2.6
31/02:00pm 20.3 20.6 17.1 82 2.0 SSW 11 15 6 8 1015.8 1015.0 2.6
31/01:30pm 20.4 21.1 18.0 86 1.5 SSW 11 17 6 9 1015.8 1015.0 2.4
31/01:00pm 20.1 21.6 19.8 98 0.2 SSW 11 17 6 9 1015.9 1015.1 2.4
31/12:30pm 18.6 20.0 18.6 100 0.0 SSW 9 17 5 9 1016.3 1015.5 2.4
31/12:00pm 17.9 19.0 17.9 100 0.0 SSW 9 15 5 8 1016.3 1015.5 2.4
31/11:30am 17.7 - - - - SSW 9 11 5 6 1016.6 1015.8 2.4
31/11:00am 17.1 - - - - S 9 11 5 6 1016.4 1015.6 2.4
31/10:30am 16.9 - - - - S 7 9 4 5 1016.6 1015.8 2.4
31/10:00am 16.9 - - - - SSW 9 13 5 7 1017.2 1016.4 2.0
31/09:30am 16.7 - - - - SSE 9 17 5 9 1016.7 1015.9 0.8
31/09:00am 16.9 - - - - SSE 11 17 6 9 1016.7 1015.9 27.4
31/08:30am 16.9 16.8 16.9 100 0.0 S 13 20 7 11 1016.6 1015.8 26.4
31/08:00am 16.9 16.8 16.9 100 0.0 S 13 17 7 9 1016.3 1015.5 25.8
31/07:30am 16.9 17.5 16.9 100 0.0 S 9 15 5 8 1016.3 1015.5 24.2
31/07:00am 16.9 16.8 16.9 100 0.0 SSW 13 17 7 9 1016.6 1015.8 21.6
31/06:30am 16.9 16.8 16.9 100 0.0 SSW 13 17 7 9 1016.3 1015.5 14.2
31/06:00am 17.0 17.3 17.0 100 0.0 S 11 15 6 8 1016.2 1015.4 8.8
31/05:30am 17.1 18.2 17.1 100 0.0 SSE 7 9 4 5 1016.0 1015.2 6.6
31/05:00am 17.2 18.3 17.2 100 0.0 SSE 7 11 4 6 1015.7 1014.9 4.4
31/04:30am 17.2 18.8 17.0 99 0.1 SSE 4 7 2 4 1015.9 1015.1 3.8
31/04:00am 17.3 19.3 17.0 98 0.2 S 2 4 1 2 1016.1 1015.3 2.8
31/03:30am 17.4 19.4 16.9 97 0.3 W 2 4 1 2 1016.4 1015.6 2.0
31/03:00am 17.4 18.5 16.6 95 0.5 W 6 9 3 5 1017.0 1016.2 1.0
31/02:30am 17.7 18.4 16.2 91 0.9 WNW 7 11 4 6 1017.1 1016.3 0.0
31/02:00am 18.1 17.1 15.7 86 1.4 W 15 19 8 10 1017.0 1016.2 0.0
31/01:30am 18.7 17.6 15.2 80 2.1 W 15 20 8 11 1017.1 1016.3 0.0
31/01:00am 19.3 17.1 14.8 75 2.6 W 20 24 11 13 1017.1 1016.3 0.0
31/12:30am 19.4 17.1 14.6 74 2.8 W 20 26 11 14 1016.8 1016.0 0.0
31/12:00am 19.5 17.5 15.6 78 2.3 W 20 26 11 14 1016.7 1015.9 0.0
 
Date/Time
WST
Temp
°C
App
Temp
°C
Dew
Point
Rel
Hum
%
Delta-T
°C
Wind Press
QNH
hPa
Press
MSL
hPa
Rain
since 9 am
mm
Dir
 
Spd
km/h
Gust
km/h
Spd
kts
Gust
kts
30/11:30pm 19.7 17.7 15.4 76 2.6 W 20 24 11 13 1016.6 1015.8 0.0
30/11:00pm 19.9 18.7 16.2 79 2.2 WSW 17 24 9 13 1016.4 1015.6 0.0
30/10:30pm 20.4 17.6 16.4 78 2.4 WSW 26 37 14 20 1016.1 1015.3 0.0
30/10:00pm 22.1 20.2 15.2 65 4.1 WSW 19 30 10 16 1015.7 1014.9 0.0
30/09:30pm 25.4 23.3 8.4 34 9.2 N 9 13 5 7 1015.3 1014.5 0.0
30/09:00pm 25.4 22.6 8.4 34 9.2 NNE 13 17 7 9 1015.5 1014.7 0.0
30/08:30pm 24.4 23.4 8.8 37 8.5 N 4 4 2 2 1015.4 1014.6 0.0
30/08:00pm 25.2 24.2 8.7 35 9.0 NNW 4 4 2 2 1015.4 1014.6 0.0
30/07:30pm 26.0 24.4 8.0 32 9.7 WNW 6 7 3 4 1015.4 1014.6 0.0
30/07:00pm 26.1 24.0 8.1 32 9.8 NNE 9 11 5 6 1015.0 1014.2 0.0
30/06:30pm 26.6 24.5 8.1 31 10.1 NNE 9 11 5 6 1014.8 1014.1 0.0
30/06:00pm 28.2 26.0 8.0 28 11.0 N 9 11 5 6 1014.7 1014.0 0.0
30/05:30pm 29.7 27.2 8.2 26 11.9 N 11 17 6 9 1014.5 1013.8 0.0
30/05:00pm 30.8 27.8 7.9 24 12.7 N 13 19 7 10 1014.4 1013.7 0.0
30/04:30pm 31.4 27.5 7.1 22 13.3 N 17 24 9 13 1014.4 1013.7 0.0
30/04:00pm 32.1 29.1 7.7 22 13.5 NNW 13 19 7 10 1014.4 1013.7 0.0
30/03:30pm 31.6 28.5 7.3 22 13.4 N 13 20 7 11 1014.3 1013.6 0.0
30/03:00pm 32.3 29.6 7.2 21 13.8 NNW 11 22 6 12 1014.5 1013.8 0.0
30/02:30pm 32.7 30.1 6.1 19 14.4 NW 9 26 5 14 1014.5 1013.8 0.0
30/02:00pm 32.0 28.5 7.0 21 13.7 N 15 26 8 14 1015.0 1014.2 0.0
30/01:30pm 32.8 29.6 6.9 20 14.3 NNW 13 19 7 10 1015.3 1014.5 0.0
30/01:00pm 32.8 28.7 6.2 19 14.5 NNW 17 28 9 15 1015.7 1014.9 0.0
30/12:30pm 33.6 29.8 7.6 20 14.5 N 17 28 9 15 1016.1 1015.3 0.0
30/12:00pm 32.0 28.2 8.9 24 13.1 N 19 28 10 15 1016.8 1016.0 0.0
30/11:30am 32.1 28.7 9.0 24 13.1 N 17 26 9 14 1017.2 1016.4 0.0
30/11:00am 31.1 27.0 8.8 25 12.5 N 20 30 11 16 1017.8 1017.1 0.0
30/10:30am 30.4 26.8 10.4 29 11.5 N 20 32 11 17 1018.3 1017.6 0.0
30/10:00am 29.4 24.9 10.0 30 11.0 N 24 35 13 19 1018.7 1018.0 0.0
30/09:30am 28.6 25.1 10.8 33 10.2 N 20 35 11 19 1019.0 1018.3 0.0
30/09:00am 26.4 20.7 11.3 39 8.6 N 32 41 17 22 1019.4 1018.7 0.0
30/08:30am 25.1 19.2 10.6 40 8.2 NNE 32 44 17 24 1019.5 1018.8 0.0
30/08:00am 22.6 17.1 9.0 42 7.3 N 28 39 15 21 1019.5 1018.8 0.0
30/07:30am 20.2 15.7 8.5 47 6.2 N 22 35 12 19 1019.5 1018.8 0.0
30/07:00am 17.9 14.0 8.5 54 4.9 NNE 19 26 10 14 1019.2 1018.5 0.0
30/06:30am 15.7 11.6 8.7 63 3.6 NNE 20 24 11 13 1019.0 1018.3 0.0
30/06:00am 15.3 11.3 9.0 66 3.3 NNE 20 28 11 15 1018.8 1018.1 0.0
30/05:30am 15.3 11.9 9.2 67 3.2 NNE 17 22 9 12 1018.4 1017.7 0.0
30/05:00am 15.6 12.0 9.7 68 3.1 NNE 19 22 10 12 1018.4 1017.7 0.0
30/04:30am 15.5 12.0 10.3 71 2.8 NNE 19 24 10 13 1018.0 1017.3 0.0
30/04:00am 15.5 12.2 10.9 74 2.5 NNE 19 26 10 14 1018.0 1017.3 0.0
30/03:30am 15.2 12.0 11.2 77 2.2 NE 19 24 10 13 1017.9 1017.2 0.0
30/03:00am 15.5 12.4 11.5 77 2.2 NE 19 24 10 13 1017.9 1017.2 0.0
30/02:30am 15.4 12.7 11.8 79 2.0 NE 17 20 9 11 1018.1 1017.4 0.0
30/02:00am 15.9 13.0 12.3 79 2.0 NE 19 24 10 13 1018.3 1017.6 0.0
30/01:30am 16.1 13.3 12.7 80 1.9 NE 19 22 10 12 1018.6 1017.9 0.0
30/01:00am 15.7 13.7 12.6 82 1.7 NE 15 19 8 10 1019.0 1018.3 0.0
30/12:30am 15.5 13.4 12.4 82 1.7 NE 15 19 8 10 1019.2 1018.5 0.0
30/12:00am 16.0 13.2 12.7 81 1.8 NE 19 24 10 13 1019.3 1018.6 0.0
 
Date/Time
WST
Temp
°C
App
Temp
°C
Dew
Point
Rel
Hum
%
Delta-T
°C
Wind Press
QNH
hPa
Press
MSL
hPa
Rain
since 9 am
mm
Dir
 
Spd
km/h
Gust
km/h
Spd
kts
Gust
kts
29/11:30pm 15.8 13.1 12.9 83 1.6 NE 19 24 10 13 1019.4 1018.7 0.0
29/11:00pm 15.9 13.2 13.0 83 1.6 ENE 19 24 10 13 1019.6 1018.9 0.0
29/10:30pm 16.4 13.6 13.3 82 1.8 ENE 20 26 11 14 1020.1 1019.3 0.0
29/10:00pm 16.2 13.0 13.1 82 1.7 ENE 22 28 12 15 1020.3 1019.5 0.0
29/09:30pm 16.5 12.9 13.2 81 1.9 ENE 24 30 13 16 1020.4 1019.6 0.0

Other Formats:

Comma delimited format used in spreadsheet applications
http://www.bom.gov.au/fwo/IDW60801/IDW60801.95644.axf

JavaScript Object Notation format (JSON) in row-major order
http://www.bom.gov.au/fwo/IDW60801/IDW60801.95644.json